createdAt,value
2019-02-27T00:01:55.799Z,67.00
2019-02-27T00:04:30.134Z,74.05
2019-02-27T00:07:04.964Z,75.90
2019-02-27T00:09:40.022Z,73.25
2019-02-27T00:12:14.190Z,78.28
2019-02-27T00:14:48.815Z,74.37
2019-02-27T00:17:23.885Z,70.83
2019-02-27T00:19:58.086Z,70.17
2019-02-27T00:22:33.712Z,66.37
2019-02-27T00:25:08.365Z,71.05
2019-02-27T00:27:42.583Z,65.47
2019-02-27T00:30:16.917Z,76.40
2019-02-27T00:32:51.917Z,72.82
2019-02-27T00:35:28.476Z,69.67
2019-02-27T00:38:03.948Z,70.92
2019-02-27T00:40:39.356Z,68.28
2019-02-27T00:43:21.496Z,79.35
2019-02-27T00:45:57.020Z,71.82
2019-02-27T00:48:31.969Z,84.03
2019-02-27T00:51:06.539Z,69.07
2019-02-27T00:53:41.038Z,72.87
2019-02-27T00:56:16.374Z,67.22
2019-02-27T00:58:50.738Z,70.60
2019-02-27T01:01:26.557Z,65.28
2019-02-27T01:04:02.502Z,66.55
2019-02-27T01:06:37.425Z,63.05
2019-02-27T01:09:15.755Z,69.77
2019-02-27T01:11:51.808Z,71.45
2019-02-27T01:15:51.070Z,71.00
2019-02-27T01:19:24.368Z,66.12
2019-02-27T01:33:46.951Z,78.57
2019-02-27T01:42:07.406Z,73.60
2019-02-27T01:57:31.403Z,78.10
2019-02-27T02:00:59.777Z,78.15
2019-02-27T02:04:22.789Z,75.28
2019-02-27T02:07:26.206Z,80.95
2019-02-27T02:10:30.332Z,76.45
2019-02-27T02:17:51.591Z,72.53
2019-02-27T02:21:01.671Z,72.08
2019-02-27T02:24:47.428Z,72.65
2019-02-27T02:28:27.230Z,72.53
2019-02-27T02:31:45.534Z,74.03
2019-02-27T02:35:49.564Z,78.15
2019-02-27T02:39:19.160Z,79.32
2019-02-27T02:43:03.335Z,77.08
2019-02-27T02:46:19.470Z,80.47
2019-02-27T02:49:50.235Z,84.52
2019-02-27T02:53:24.995Z,88.97
2019-02-27T02:57:00.569Z,116.05
2019-02-27T03:00:39.106Z,89.45
2019-02-27T03:04:05.177Z,85.22
2019-02-27T03:07:32.282Z,82.65
2019-02-27T03:10:48.696Z,79.22
2019-02-27T03:14:17.662Z,83.55
2019-02-27T03:17:54.714Z,78.65
2019-02-27T03:21:11.032Z,88.67
2019-02-27T03:24:53.233Z,86.82
2019-02-27T03:28:05.914Z,87.40
2019-02-27T03:31:19.591Z,86.02
2019-02-27T03:34:50.471Z,83.40
2019-02-27T03:38:04.591Z,96.28
2019-02-27T03:41:30.599Z,83.75
2019-02-27T03:44:55.875Z,87.82
2019-02-27T03:47:55.474Z,94.03
2019-02-27T03:51:30.852Z,90.05
2019-02-27T03:54:26.280Z,87.02
2019-02-27T03:57:34.052Z,81.72
2019-02-27T04:00:55.900Z,90.12
2019-02-27T04:04:36.935Z,96.00
2019-02-27T04:08:18.769Z,84.60
2019-02-27T04:10:54.065Z,88.00
2019-02-27T04:13:28.749Z,84.80
2019-02-27T04:16:04.922Z,83.78
2019-02-27T04:18:33.923Z,89.10
2019-02-27T04:21:09.173Z,90.70
2019-02-27T04:23:47.999Z,91.17
2019-02-27T04:26:21.166Z,98.97
2019-02-27T04:28:56.276Z,89.97
2019-02-27T04:31:31.307Z,93.30
2019-02-27T04:34:06.226Z,96.35
2019-02-27T04:36:41.357Z,86.70
2019-02-27T04:39:20.516Z,96.50
2019-02-27T04:41:53.077Z,89.60
2019-02-27T04:44:28.666Z,89.42
2019-02-27T04:47:04.253Z,87.15
2019-02-27T04:49:39.327Z,83.00
2019-02-27T04:52:14.847Z,83.10
2019-02-27T04:54:49.889Z,79.45
2019-02-27T04:57:24.982Z,67.85
2019-02-27T05:00:00.242Z,71.75
2019-02-27T05:02:34.832Z,74.60
2019-02-27T05:05:09.469Z,78.45
2019-02-27T05:07:45.011Z,64.82
2019-02-27T05:10:19.361Z,80.15
2019-02-27T05:12:54.413Z,69.50
2019-02-27T05:15:29.333Z,76.10
2019-02-27T05:18:05.016Z,69.35
2019-02-27T05:20:44.987Z,76.77
2019-02-27T05:23:19.362Z,73.52
2019-02-27T05:25:54.309Z,80.83
2019-02-27T05:28:28.138Z,81.75
2019-02-27T05:31:04.189Z,77.15
2019-02-27T05:33:39.877Z,73.00
2019-02-27T05:36:15.268Z,72.97
2019-02-27T05:38:50.404Z,73.28
2019-02-27T05:41:24.828Z,66.17
2019-02-27T05:44:00.594Z,73.83
2019-02-27T05:46:35.691Z,68.55
2019-02-27T05:49:11.533Z,65.62
2019-02-27T05:51:46.637Z,73.60
2019-02-27T05:54:22.236Z,72.62
2019-02-27T05:56:58.413Z,72.85
2019-02-27T05:59:32.825Z,64.85
2019-02-27T06:02:08.702Z,67.92
2019-02-27T06:04:42.216Z,67.10
2019-02-27T06:07:18.640Z,65.17
2019-02-27T06:09:51.354Z,69.55
2019-02-27T06:12:24.679Z,77.00
2019-02-27T06:14:58.829Z,78.20
2019-02-27T06:17:42.906Z,72.03
2019-02-27T06:20:07.989Z,74.77
2019-02-27T06:22:42.398Z,75.57
2019-02-27T06:25:21.493Z,71.77
2019-02-27T06:27:53.591Z,77.35
2019-02-27T06:30:30.683Z,69.92
2019-02-27T06:33:05.963Z,78.90
2019-02-27T06:35:40.081Z,66.47
2019-02-27T06:38:13.266Z,75.22
2019-02-27T06:40:46.815Z,78.78
2019-02-27T06:43:20.404Z,66.65
2019-02-27T06:45:54.408Z,76.55
2019-02-27T06:48:27.984Z,76.25
2019-02-27T06:51:01.640Z,69.85
2019-02-27T06:53:35.279Z,75.08
2019-02-27T06:56:10.960Z,67.17
2019-02-27T06:58:47.520Z,66.42
2019-02-27T07:01:21.961Z,69.65
2019-02-27T07:03:55.897Z,85.72
2019-02-27T07:06:30.868Z,86.63
2019-02-27T07:09:11.392Z,74.85
2019-02-27T07:11:46.202Z,80.12
2019-02-27T07:14:21.179Z,97.45
2019-02-27T07:16:57.319Z,83.00
2019-02-27T07:19:32.161Z,77.00
2019-02-27T07:22:06.229Z,84.25
2019-02-27T07:24:41.373Z,79.87
2019-02-27T07:27:21.731Z,72.37
2019-02-27T07:29:56.151Z,76.22
2019-02-27T07:32:31.364Z,80.92
2019-02-27T07:35:03.709Z,91.85
2019-02-27T07:37:35.761Z,86.10
2019-02-27T07:40:10.647Z,75.35
2019-02-27T07:42:44.188Z,79.50
2019-02-27T07:45:19.204Z,82.50
2019-02-27T07:47:52.735Z,83.30
2019-02-27T07:50:26.011Z,81.15
2019-02-27T07:52:59.917Z,74.92
2019-02-27T07:55:33.319Z,73.17
2019-02-27T07:58:06.142Z,74.47
2019-02-27T08:00:39.979Z,70.67
2019-02-27T08:03:13.805Z,70.62
2019-02-27T08:05:48.015Z,60.98
2019-02-27T08:08:23.607Z,69.65
2019-02-27T08:10:57.154Z,65.40
2019-02-27T08:13:31.403Z,66.90
2019-02-27T08:16:04.225Z,63.13
2019-02-27T08:18:38.169Z,75.47
2019-02-27T08:21:11.294Z,60.40
2019-02-27T08:23:44.739Z,70.90
2019-02-27T08:26:18.868Z,80.35
2019-02-27T08:28:52.593Z,73.40
2019-02-27T08:31:28.177Z,68.05
2019-02-27T08:34:01.270Z,72.03
2019-02-27T08:36:35.112Z,76.02
2019-02-27T08:39:09.257Z,81.90
2019-02-27T08:41:42.133Z,68.80
2019-02-27T08:44:14.915Z,66.40
2019-02-27T08:46:47.845Z,69.72
2019-02-27T08:49:23.983Z,67.72
2019-02-27T08:51:55.072Z,69.07
2019-02-27T08:54:27.069Z,72.10
2019-02-27T08:57:00.385Z,76.42
2019-02-27T08:59:33.187Z,71.12
2019-02-27T09:02:06.166Z,74.77
2019-02-27T09:04:39.147Z,63.78
2019-02-27T09:07:12.044Z,72.05
2019-02-27T09:09:44.938Z,65.40
2019-02-27T09:12:17.847Z,67.53
2019-02-27T09:14:51.240Z,72.40
2019-02-27T09:17:26.913Z,65.15
2019-02-27T09:19:59.108Z,63.58
2019-02-27T09:22:33.858Z,58.60
2019-02-27T09:25:06.755Z,56.42
2019-02-27T09:27:39.191Z,64.60
2019-02-27T09:30:13.918Z,62.20
2019-02-27T09:32:47.828Z,64.27
2019-02-27T09:35:21.121Z,56.95
2019-02-27T09:37:54.394Z,62.38
2019-02-27T09:40:27.179Z,56.33
2019-02-27T09:42:59.743Z,60.35
2019-02-27T09:45:34.996Z,63.42
2019-02-27T09:48:07.416Z,56.68
2019-02-27T09:50:47.759Z,57.95
2019-02-27T09:53:19.614Z,52.85
2019-02-27T09:55:54.295Z,56.40
2019-02-27T09:58:28.209Z,53.78
2019-02-27T10:01:12.050Z,55.88
2019-02-27T10:03:46.591Z,59.77
2019-02-27T10:06:19.415Z,57.75
2019-02-27T10:08:52.869Z,54.35
2019-02-27T10:11:26.759Z,52.62
2019-02-27T10:14:00.074Z,46.92
2019-02-27T10:16:34.872Z,48.92
2019-02-27T10:19:07.444Z,43.33
2019-02-27T10:21:41.268Z,42.67
2019-02-27T10:24:15.319Z,45.45
2019-02-27T10:26:48.474Z,44.55
2019-02-27T10:29:21.305Z,45.40
2019-02-27T10:31:55.455Z,44.48
2019-02-27T10:34:29.192Z,42.43
2019-02-27T10:37:03.114Z,39.85
2019-02-27T10:39:37.036Z,40.33
2019-02-27T10:42:11.345Z,32.08
2019-02-27T10:44:44.629Z,38.95
2019-02-27T10:47:18.348Z,34.13
2019-02-27T10:49:51.929Z,30.12
2019-02-27T10:52:26.067Z,33.48
2019-02-27T10:54:59.759Z,35.48
2019-02-27T10:57:38.218Z,29.70
2019-02-27T11:00:14.328Z,24.98
2019-02-27T11:02:47.956Z,25.82
2019-02-27T11:05:21.568Z,27.75
2019-02-27T11:07:56.143Z,28.23
2019-02-27T11:10:30.083Z,23.07
2019-02-27T11:13:06.789Z,25.37
2019-02-27T11:15:41.370Z,25.15
2019-02-27T11:18:14.072Z,25.50
2019-02-27T11:20:48.563Z,19.92
2019-02-27T11:23:22.725Z,22.67
2019-02-27T11:25:56.917Z,28.95
2019-02-27T11:28:33.174Z,27.82
2019-02-27T11:31:11.044Z,32.73
2019-02-27T11:33:43.219Z,25.10
2019-02-27T11:36:17.952Z,32.20
2019-02-27T11:38:50.435Z,24.45
2019-02-27T11:41:23.622Z,28.27
2019-02-27T11:43:58.994Z,28.90
2019-02-27T11:46:44.221Z,28.07
2019-02-27T11:49:20.603Z,31.90
2019-02-27T11:51:57.029Z,25.27
2019-02-27T11:54:30.944Z,24.15
2019-02-27T11:57:05.671Z,21.50
2019-02-27T11:59:40.791Z,26.20
2019-02-27T12:02:15.733Z,24.12
2019-02-27T12:04:53.758Z,22.82
2019-02-27T12:07:27.871Z,21.97
2019-02-27T12:10:03.491Z,21.42
2019-02-27T12:12:39.042Z,20.45
2019-02-27T12:15:17.325Z,25.75
2019-02-27T12:17:57.222Z,19.52
2019-02-27T12:20:31.176Z,17.12
2019-02-27T12:23:07.526Z,18.32
2019-02-27T12:25:42.928Z,19.52
2019-02-27T12:28:18.258Z,19.45
2019-02-27T12:30:54.470Z,17.67
2019-02-27T12:33:29.465Z,21.33
2019-02-27T12:36:05.121Z,20.15
2019-02-27T12:38:42.292Z,16.73
2019-02-27T12:41:16.703Z,19.12
2019-02-27T12:43:52.727Z,15.70
2019-02-27T12:46:31.895Z,16.52
2019-02-27T12:49:05.360Z,13.83
2019-02-27T12:51:40.937Z,15.55
2019-02-27T12:54:16.672Z,14.20
2019-02-27T12:56:51.143Z,14.00
2019-02-27T12:59:25.076Z,15.35
2019-02-27T13:02:07.941Z,15.43
2019-02-27T13:04:36.219Z,15.28
2019-02-27T13:07:11.820Z,18.67
2019-02-27T13:09:46.644Z,13.25
2019-02-27T13:12:22.029Z,14.47
2019-02-27T13:14:59.431Z,17.05
2019-02-27T13:17:34.463Z,17.80
2019-02-27T13:20:11.714Z,17.37
2019-02-27T13:22:48.701Z,15.80
2019-02-27T13:25:24.785Z,18.52
2019-02-27T13:28:00.623Z,21.10
2019-02-27T13:30:41.403Z,20.95
2019-02-27T13:33:16.619Z,19.42
2019-02-27T13:35:51.111Z,16.93
2019-02-27T13:38:25.556Z,16.50
2019-02-27T13:41:02.530Z,18.82
2019-02-27T13:43:37.865Z,17.62
2019-02-27T13:46:12.103Z,20.80
2019-02-27T13:48:46.363Z,18.40
2019-02-27T13:51:19.723Z,21.73
2019-02-27T13:54:00.188Z,22.07
2019-02-27T13:56:33.005Z,24.32
2019-02-27T13:59:11.054Z,23.77
2019-02-27T14:01:44.328Z,22.98
2019-02-27T14:04:27.115Z,23.22
2019-02-27T14:07:01.564Z,23.50
2019-02-27T14:09:39.076Z,25.97
2019-02-27T14:12:14.740Z,21.07
2019-02-27T14:14:53.383Z,26.35
2019-02-27T14:17:28.884Z,25.68
2019-02-27T14:20:05.284Z,27.05
2019-02-27T14:22:40.716Z,25.25
2019-02-27T14:25:17.259Z,28.32
2019-02-27T14:28:03.961Z,26.45
2019-02-27T14:31:08.973Z,24.00
2019-02-27T14:33:55.173Z,26.87
2019-02-27T14:36:33.814Z,24.32
2019-02-27T14:39:11.278Z,22.42
2019-02-27T14:41:53.157Z,22.95
2019-02-27T14:44:31.304Z,22.50
2019-02-27T14:47:02.520Z,20.95
2019-02-27T14:49:36.591Z,20.95
2019-02-27T14:52:14.014Z,18.75
2019-02-27T14:54:46.663Z,19.95
2019-02-27T14:57:22.168Z,19.65
2019-02-27T14:59:56.508Z,18.12
2019-02-27T15:02:30.932Z,15.90
2019-02-27T15:05:08.895Z,21.37
2019-02-27T15:07:43.024Z,19.12
2019-02-27T15:10:17.989Z,15.28
2019-02-27T15:12:55.179Z,19.77
2019-02-27T15:15:30.812Z,23.62
2019-02-27T15:18:07.340Z,22.70
2019-02-27T15:20:43.028Z,18.35
2019-02-27T15:23:18.300Z,19.15
2019-02-27T15:25:54.270Z,22.20
2019-02-27T15:28:33.041Z,19.55
2019-02-27T15:31:09.168Z,21.97
2019-02-27T15:33:48.433Z,20.43
2019-02-27T15:36:23.621Z,15.88
2019-02-27T15:39:04.252Z,20.77
2019-02-27T15:41:39.277Z,16.15
2019-02-27T15:44:14.137Z,17.02
2019-02-27T15:46:49.160Z,19.67
2019-02-27T15:49:25.214Z,18.52
2019-02-27T15:52:03.312Z,18.02
2019-02-27T15:54:37.203Z,19.35
2019-02-27T15:57:11.529Z,19.25
2019-02-27T15:59:48.257Z,23.92
2019-02-27T16:02:22.684Z,26.25
2019-02-27T16:04:57.569Z,31.25
2019-02-27T16:07:34.062Z,29.95
2019-02-27T16:10:10.874Z,30.85
2019-02-27T16:12:46.889Z,40.28
2019-02-27T16:15:20.049Z,40.65
2019-02-27T16:17:53.963Z,36.00
2019-02-27T16:20:27.300Z,39.18
2019-02-27T16:23:04.393Z,40.50
2019-02-27T16:25:37.003Z,37.42
2019-02-27T16:28:12.085Z,35.98
2019-02-27T16:37:23.981Z,39.45
2019-02-27T16:40:00.529Z,40.58
2019-02-27T16:42:36.441Z,54.18
2019-02-27T16:45:12.106Z,58.35
2019-02-27T16:47:46.332Z,70.10
2019-02-27T16:50:31.441Z,62.23
2019-02-27T16:53:06.318Z,56.37
2019-02-27T16:55:41.844Z,52.67
2019-02-27T16:58:17.717Z,67.92
2019-02-27T17:00:55.411Z,54.30
2019-02-27T17:03:29.495Z,55.40
2019-02-27T17:06:04.189Z,64.25
2019-02-27T17:08:39.118Z,74.82
2019-02-27T17:11:14.134Z,87.88
2019-02-27T17:13:50.347Z,104.92
2019-02-27T17:16:48.923Z,58.95
2019-02-27T17:19:22.656Z,64.40
2019-02-27T17:21:58.448Z,67.08
2019-02-27T17:24:32.227Z,61.23
2019-02-27T17:27:12.594Z,64.37
2019-02-27T17:29:46.206Z,54.88
2019-02-27T17:32:23.715Z,46.88
2019-02-27T17:34:59.386Z,35.95
2019-02-27T17:37:37.369Z,44.77
2019-02-27T17:40:12.540Z,51.70
2019-02-27T17:42:46.386Z,55.23
2019-02-27T17:45:23.426Z,50.28
2019-02-27T17:47:58.573Z,47.17
2019-02-27T17:50:32.767Z,46.05
2019-02-27T17:53:06.853Z,55.78
2019-02-27T17:55:42.480Z,60.55
2019-02-27T17:58:15.933Z,46.28
2019-02-27T18:00:54.412Z,49.35
2019-02-27T18:03:30.506Z,46.37
2019-02-27T18:06:04.874Z,44.93
2019-02-27T18:08:41.154Z,50.92
2019-02-27T18:11:17.744Z,39.95
2019-02-27T18:13:52.490Z,52.55
2019-02-27T18:16:28.165Z,53.60
2019-02-27T18:19:05.191Z,53.40
2019-02-27T18:21:39.788Z,58.50
2019-02-27T18:24:17.798Z,58.25
2019-02-27T18:27:33.672Z,58.33
2019-02-27T18:30:01.710Z,56.50
2019-02-27T18:33:01.182Z,54.58
2019-02-27T18:35:38.063Z,58.70
2019-02-27T18:38:27.804Z,57.03
2019-02-27T18:41:39.686Z,49.20
2019-02-27T18:44:14.945Z,48.08
2019-02-27T18:46:51.720Z,57.17
2019-02-27T18:49:26.775Z,52.53
2019-02-27T18:52:21.213Z,51.10
2019-02-27T18:54:50.731Z,54.80
2019-02-27T18:57:23.610Z,59.95
2019-02-27T19:00:01.415Z,52.23
2019-02-27T19:02:33.682Z,51.10
2019-02-27T19:05:08.157Z,44.93
2019-02-27T19:07:42.243Z,40.95
2019-02-27T19:10:16.563Z,40.98
2019-02-27T19:12:51.131Z,40.45
2019-02-27T19:15:25.410Z,44.67
2019-02-27T19:17:59.390Z,45.20
2019-02-27T19:20:33.742Z,51.23
2019-02-27T19:23:09.915Z,58.35
2019-02-27T19:25:43.510Z,57.62
2019-02-27T19:28:16.558Z,57.20
2019-02-27T19:30:50.214Z,59.40
2019-02-27T19:33:23.306Z,63.45
2019-02-27T19:35:57.521Z,52.45
2019-02-27T19:38:32.144Z,54.45
2019-02-27T19:41:06.514Z,52.60
2019-02-27T19:43:39.499Z,60.03
2019-02-27T19:46:12.362Z,53.13
2019-02-27T19:48:47.930Z,54.23
2019-02-27T19:51:21.246Z,53.52
2019-02-27T19:53:57.112Z,61.60
2019-02-27T19:56:32.324Z,51.73
2019-02-27T19:59:06.899Z,48.90
2019-02-27T20:01:47.030Z,50.28
2019-02-27T20:04:18.434Z,63.98
2019-02-27T20:06:51.508Z,65.05
2019-02-27T20:09:26.362Z,60.00
2019-02-27T20:11:59.448Z,61.40
2019-02-27T20:14:33.236Z,66.17
2019-02-27T20:17:08.690Z,70.28
2019-02-27T20:19:42.509Z,58.87
2019-02-27T20:22:18.980Z,58.63
2019-02-27T20:24:51.707Z,52.70
2019-02-27T20:27:26.808Z,52.27
2019-02-27T20:30:01.070Z,56.98
2019-02-27T20:32:35.044Z,52.83
2019-02-27T20:35:09.173Z,53.15
2019-02-27T20:37:42.564Z,56.60
2019-02-27T20:40:15.669Z,56.00
2019-02-27T20:42:51.369Z,59.73
2019-02-27T20:45:22.927Z,58.38
2019-02-27T20:48:00.771Z,47.45
2019-02-27T20:50:40.697Z,49.70
2019-02-27T20:53:16.406Z,51.60
2019-02-27T20:55:50.334Z,53.73
2019-02-27T20:58:23.936Z,54.88
2019-02-27T21:00:57.633Z,53.42
2019-02-27T21:03:32.252Z,56.42
2019-02-27T21:06:05.419Z,65.55
2019-02-27T21:08:39.985Z,71.30
2019-02-27T21:11:14.448Z,70.47
2019-02-27T21:13:49.722Z,65.55
2019-02-27T21:16:23.279Z,64.40
2019-02-27T21:18:57.785Z,64.72
2019-02-27T21:21:34.708Z,59.85
2019-02-27T21:24:08.658Z,64.97
2019-02-27T21:26:42.987Z,60.55
2019-02-27T21:29:17.839Z,67.10
2019-02-27T21:31:52.320Z,67.78
2019-02-27T21:34:26.920Z,75.52
2019-02-27T21:37:01.188Z,77.82
2019-02-27T21:39:34.940Z,73.57
2019-02-27T21:42:09.255Z,75.50
2019-02-27T21:44:43.650Z,71.72
2019-02-27T21:47:18.977Z,77.55
2019-02-27T21:49:53.928Z,77.45
2019-02-27T21:52:28.402Z,79.00
2019-02-27T21:55:01.365Z,72.37
2019-02-27T21:57:34.733Z,81.40
2019-02-27T22:00:11.349Z,78.28
2019-02-27T22:02:44.968Z,79.77
2019-02-27T22:05:19.697Z,84.07
2019-02-27T22:07:55.417Z,90.50
2019-02-27T22:10:30.591Z,94.70
2019-02-27T22:13:09.558Z,101.02
2019-02-27T22:15:40.590Z,95.20
2019-02-27T22:18:14.403Z,105.78
2019-02-27T22:20:50.219Z,101.22
2019-02-27T22:23:23.874Z,90.03
2019-02-27T22:25:57.998Z,89.03
2019-02-27T22:28:31.441Z,85.12
2019-02-27T22:31:06.761Z,76.62
2019-02-27T22:33:41.690Z,80.62
2019-02-27T22:36:16.020Z,78.57
2019-02-27T22:38:50.769Z,72.95
2019-02-27T22:41:25.113Z,67.97
2019-02-27T22:43:59.204Z,73.30
2019-02-27T22:46:33.444Z,67.40
2019-02-27T22:49:07.863Z,73.28
2019-02-27T22:51:45.188Z,72.80
2019-02-27T22:54:17.160Z,66.20
2019-02-27T22:56:51.925Z,66.85
2019-02-27T22:59:26.823Z,74.95
2019-02-27T23:02:02.210Z,68.42
2019-02-27T23:04:37.826Z,72.35
2019-02-27T23:07:12.246Z,66.62
2019-02-27T23:09:46.297Z,72.85
2019-02-27T23:12:20.264Z,74.30
2019-02-27T23:14:53.996Z,70.87
2019-02-27T23:17:31.667Z,76.15
2019-02-27T23:20:06.399Z,75.55
2019-02-27T23:22:39.752Z,74.70
2019-02-27T23:25:16.218Z,70.80
2019-02-27T23:27:50.599Z,74.62
2019-02-27T23:30:24.937Z,76.17
2019-02-27T23:32:59.402Z,73.87
2019-02-27T23:35:34.619Z,69.30
2019-02-27T23:38:08.113Z,78.72
2019-02-27T23:40:42.123Z,84.87
2019-02-27T23:43:17.015Z,85.32
2019-02-27T23:45:50.009Z,80.65
2019-02-27T23:48:23.918Z,82.08
2019-02-27T23:50:58.689Z,80.67
2019-02-27T23:53:34.966Z,76.72
2019-02-27T23:56:09.263Z,75.30
2019-02-27T23:58:43.470Z,81.40
